Bush, Illinois
Current Conditions -  °F | °C
As of 6:52 AM on Thursday 27 Nov 2014 (Local Time) from KMDH Reporting Station
Overcast Overcast  
Wind Chill: -7°   Ceiling: 2000
Heat Index: -2°   Visibility: 10mi
Dew Point: -4°   Wind: 12mph
Humidity: 82%   Direction: 350°N
Pressure: 30.4"   Gusts: NA
Location:  37.8209°N, 89.2055°W
Report Text: KMDH 271252Z AUTO 35010KT 10SM OVC020 M02/M04 A3040 RMK AO2 SLP300 T10171044
Loading
Personal Weather Stations






























Interactive Weather Map New forecast layout! Learn more

10-Day Weather Forecast

Advertisements
Track Severe Weather on mobile